Terminal Aerodrome Forecast
Issued by NWS Cleveland, OH

Home | Current Version | Previous Version | Graphics & Text | Print | Product List | Glossary On
Versions: 1 2 3 4 5 6 7 8 9 10 11 12 13 14 15 16 17 18
000
FTUS41 KCLE 302100 AAA
TAFYNG
TAF AMD
KYNG 302123Z 3021/0118 32010KT P6SM -SHRA BKN035 OVC050
     FM302300 35006KT P6SM VCSH SCT035 BKN045
     FM010200 34006KT 6SM -SHRA BKN015 OVC040
      TEMPO 0103/0106 5SM -SHRA BKN008
     FM010700 01006KT P6SM BKN030
     FM011200 36008KT P6SM SCT060=

USA.gov is the U.S. government's official web portal to all federal, state and local government web resources and services.